sensor_id;sensor_type;location;lat;lon;timestamp;P1;durP1;ratioP1;P2;durP2;ratioP2
65597;SDS011;52267;51.984;20.956;2023-06-04T00:01:29;9.50;;;6.00;;
65597;SDS011;52267;51.984;20.956;2023-06-04T00:03:56;9.40;;;6.10;;
65597;SDS011;52267;51.984;20.956;2023-06-04T00:06:23;10.80;;;6.50;;
65597;SDS011;52267;51.984;20.956;2023-06-04T00:08:50;12.20;;;7.00;;
65597;SDS011;52267;51.984;20.956;2023-06-04T00:11:18;11.80;;;7.00;;
65597;SDS011;52267;51.984;20.956;2023-06-04T00:13:46;13.50;;;7.80;;
65597;SDS011;52267;51.984;20.956;2023-06-04T00:16:13;11.90;;;8.10;;
65597;SDS011;52267;51.984;20.956;2023-06-04T00:18:40;14.00;;;8.60;;
65597;SDS011;52267;51.984;20.956;2023-06-04T00:21:07;12.90;;;7.70;;
65597;SDS011;52267;51.984;20.956;2023-06-04T00:23:34;11.90;;;8.20;;
65597;SDS011;52267;51.984;20.956;2023-06-04T00:26:03;13.10;;;8.70;;
65597;SDS011;52267;51.984;20.956;2023-06-04T00:28:30;13.60;;;8.80;;
65597;SDS011;52267;51.984;20.956;2023-06-04T00:30:57;11.90;;;8.30;;
65597;SDS011;52267;51.984;20.956;2023-06-04T00:33:24;13.00;;;8.20;;
65597;SDS011;52267;51.984;20.956;2023-06-04T00:35:51;13.60;;;8.50;;
65597;SDS011;52267;51.984;20.956;2023-06-04T00:38:18;15.50;;;9.40;;
65597;SDS011;52267;51.984;20.956;2023-06-04T00:40:45;14.80;;;8.70;;
65597;SDS011;52267;51.984;20.956;2023-06-04T00:43:12;12.80;;;8.60;;
65597;SDS011;52267;51.984;20.956;2023-06-04T00:45:40;11.50;;;8.00;;
65597;SDS011;52267;51.984;20.956;2023-06-04T00:48:09;13.60;;;8.20;;
65597;SDS011;52267;51.984;20.956;2023-06-04T00:50:36;11.70;;;7.80;;
65597;SDS011;52267;51.984;20.956;2023-06-04T00:53:05;14.40;;;7.80;;
65597;SDS011;52267;51.984;20.956;2023-06-04T00:55:33;11.80;;;7.40;;
65597;SDS011;52267;51.984;20.956;2023-06-04T00:58:00;11.30;;;7.60;;
65597;SDS011;52267;51.984;20.956;2023-06-04T01:00:28;11.90;;;8.50;;
65597;SDS011;52267;51.984;20.956;2023-06-04T01:02:56;15.40;;;8.50;;
65597;SDS011;52267;51.984;20.956;2023-06-04T01:08:14;12.60;;;7.30;;
65597;SDS011;52267;51.984;20.956;2023-06-04T01:10:52;13.70;;;7.80;;
65597;SDS011;52267;51.984;20.956;2023-06-04T01:13:20;13.30;;;7.90;;
65597;SDS011;52267;51.984;20.956;2023-06-04T01:15:47;12.10;;;7.70;;
65597;SDS011;52267;51.984;20.956;2023-06-04T01:18:21;11.00;;;7.50;;
65597;SDS011;52267;51.984;20.956;2023-06-04T01:21:06;12.00;;;7.10;;
65597;SDS011;52267;51.984;20.956;2023-06-04T01:24:01;11.80;;;7.20;;
65597;SDS011;52267;51.984;20.956;2023-06-04T01:26:31;13.20;;;7.90;;
65597;SDS011;52267;51.984;20.956;2023-06-04T01:28:59;10.60;;;7.60;;
65597;SDS011;52267;51.984;20.956;2023-06-04T01:31:26;10.30;;;6.50;;
65597;SDS011;52267;51.984;20.956;2023-06-04T01:33:55;10.80;;;7.10;;
65597;SDS011;52267;51.984;20.956;2023-06-04T01:36:24;10.00;;;6.50;;
65597;SDS011;52267;51.984;20.956;2023-06-04T01:38:52;10.80;;;6.10;;
65597;SDS011;52267;51.984;20.956;2023-06-04T01:41:19;11.70;;;6.90;;
65597;SDS011;52267;51.984;20.956;2023-06-04T01:43:46;9.80;;;5.80;;
65597;SDS011;52267;51.984;20.956;2023-06-04T01:46:13;8.90;;;5.70;;
65597;SDS011;52267;51.984;20.956;2023-06-04T01:48:40;9.40;;;5.70;;
65597;SDS011;52267;51.984;20.956;2023-06-04T01:51:07;10.50;;;6.50;;
65597;SDS011;52267;51.984;20.956;2023-06-04T01:53:34;11.50;;;7.90;;
65597;SDS011;52267;51.984;20.956;2023-06-04T01:56:02;12.70;;;7.30;;
65597;SDS011;52267;51.984;20.956;2023-06-04T01:58:29;11.00;;;6.50;;
65597;SDS011;52267;51.984;20.956;2023-06-04T02:00:58;10.00;;;5.80;;
65597;SDS011;52267;51.984;20.956;2023-06-04T02:03:26;8.50;;;6.10;;
65597;SDS011;52267;51.984;20.956;2023-06-04T02:05:54;11.10;;;6.20;;
65597;SDS011;52267;51.984;20.956;2023-06-04T02:08:21;9.00;;;5.60;;
65597;SDS011;52267;51.984;20.956;2023-06-04T02:10:48;9.00;;;5.60;;
65597;SDS011;52267;51.984;20.956;2023-06-04T02:13:15;9.00;;;5.30;;
65597;SDS011;52267;51.984;20.956;2023-06-04T02:15:43;11.60;;;5.70;;
65597;SDS011;52267;51.984;20.956;2023-06-04T02:18:18;10.80;;;6.70;;
65597;SDS011;52267;51.984;20.956;2023-06-04T02:20:49;11.00;;;6.80;;
65597;SDS011;52267;51.984;20.956;2023-06-04T02:23:18;11.00;;;6.30;;
65597;SDS011;52267;51.984;20.956;2023-06-04T02:25:46;9.70;;;5.70;;
65597;SDS011;52267;51.984;20.956;2023-06-04T02:28:14;9.70;;;6.10;;
65597;SDS011;52267;51.984;20.956;2023-06-04T02:30:42;10.50;;;5.80;;
65597;SDS011;52267;51.984;20.956;2023-06-04T02:33:10;9.50;;;5.60;;
65597;SDS011;52267;51.984;20.956;2023-06-04T02:35:37;10.40;;;6.30;;
65597;SDS011;52267;51.984;20.956;2023-06-04T02:38:05;9.60;;;6.30;;
65597;SDS011;52267;51.984;20.956;2023-06-04T02:40:32;9.10;;;6.10;;
65597;SDS011;52267;51.984;20.956;2023-06-04T02:42:59;9.00;;;6.30;;
65597;SDS011;52267;51.984;20.956;2023-06-04T02:45:26;8.90;;;5.80;;
65597;SDS011;52267;51.984;20.956;2023-06-04T02:47:54;10.80;;;5.90;;
65597;SDS011;52267;51.984;20.956;2023-06-04T02:50:21;9.50;;;5.60;;
65597;SDS011;52267;51.984;20.956;2023-06-04T02:52:48;9.40;;;5.70;;
65597;SDS011;52267;51.984;20.956;2023-06-04T02:55:16;11.30;;;6.30;;
65597;SDS011;52267;51.984;20.956;2023-06-04T02:57:43;10.60;;;6.60;;
65597;SDS011;52267;51.984;20.956;2023-06-04T03:00:14;10.50;;;5.90;;
65597;SDS011;52267;51.984;20.956;2023-06-04T03:02:45;10.00;;;6.20;;
65597;SDS011;52267;51.984;20.956;2023-06-04T03:05:14;10.10;;;5.50;;
65597;SDS011;52267;51.984;20.956;2023-06-04T03:07:43;10.40;;;6.00;;
65597;SDS011;52267;51.984;20.956;2023-06-04T03:10:13;8.60;;;5.90;;
65597;SDS011;52267;51.984;20.956;2023-06-04T03:12:44;7.50;;;5.50;;
65597;SDS011;52267;51.984;20.956;2023-06-04T03:15:11;10.10;;;5.50;;
65597;SDS011;52267;51.984;20.956;2023-06-04T03:17:38;9.00;;;5.80;;
65597;SDS011;52267;51.984;20.956;2023-06-04T03:20:07;12.00;;;6.10;;
65597;SDS011;52267;51.984;20.956;2023-06-04T03:22:35;10.20;;;6.20;;
65597;SDS011;52267;51.984;20.956;2023-06-04T03:25:04;9.70;;;6.30;;
65597;SDS011;52267;51.984;20.956;2023-06-04T03:27:32;9.10;;;5.90;;
65597;SDS011;52267;51.984;20.956;2023-06-04T03:29:59;9.80;;;5.90;;
65597;SDS011;52267;51.984;20.956;2023-06-04T03:32:26;10.30;;;6.10;;
65597;SDS011;52267;51.984;20.956;2023-06-04T03:34:53;11.80;;;6.00;;
65597;SDS011;52267;51.984;20.956;2023-06-04T03:37:20;10.20;;;5.90;;
65597;SDS011;52267;51.984;20.956;2023-06-04T03:39:50;9.70;;;5.20;;
65597;SDS011;52267;51.984;20.956;2023-06-04T03:42:17;10.70;;;5.80;;
65597;SDS011;52267;51.984;20.956;2023-06-04T03:44:45;8.00;;;5.10;;
65597;SDS011;52267;51.984;20.956;2023-06-04T03:47:13;8.30;;;5.10;;
65597;SDS011;52267;51.984;20.956;2023-06-04T03:49:40;8.20;;;5.00;;
65597;SDS011;52267;51.984;20.956;2023-06-04T03:52:07;9.10;;;5.70;;
65597;SDS011;52267;51.984;20.956;2023-06-04T03:54:34;8.80;;;5.40;;
65597;SDS011;52267;51.984;20.956;2023-06-04T03:57:01;10.00;;;5.80;;
65597;SDS011;52267;51.984;20.956;2023-06-04T03:59:28;8.00;;;5.10;;
65597;SDS011;52267;51.984;20.956;2023-06-04T04:01:55;11.60;;;5.80;;
65597;SDS011;52267;51.984;20.956;2023-06-04T04:04:22;10.40;;;6.20;;
65597;SDS011;52267;51.984;20.956;2023-06-04T04:06:49;7.20;;;5.60;;
65597;SDS011;52267;51.984;20.956;2023-06-04T04:09:16;9.30;;;5.60;;
65597;SDS011;52267;51.984;20.956;2023-06-04T04:11:43;8.20;;;5.40;;
65597;SDS011;52267;51.984;20.956;2023-06-04T04:14:10;9.10;;;5.70;;
65597;SDS011;52267;51.984;20.956;2023-06-04T04:16:37;8.70;;;5.40;;
65597;SDS011;52267;51.984;20.956;2023-06-04T04:19:04;9.70;;;5.40;;
65597;SDS011;52267;51.984;20.956;2023-06-04T04:21:37;8.60;;;5.60;;
65597;SDS011;52267;51.984;20.956;2023-06-04T04:24:04;9.00;;;5.70;;
65597;SDS011;52267;51.984;20.956;2023-06-04T04:26:31;10.60;;;5.00;;
65597;SDS011;52267;51.984;20.956;2023-06-04T04:28:59;7.70;;;4.10;;
65597;SDS011;52267;51.984;20.956;2023-06-04T04:31:27;8.80;;;5.30;;
65597;SDS011;52267;51.984;20.956;2023-06-04T04:33:57;6.90;;;4.30;;
65597;SDS011;52267;51.984;20.956;2023-06-04T04:36:24;7.10;;;4.30;;
65597;SDS011;52267;51.984;20.956;2023-06-04T04:38:51;8.10;;;5.10;;
65597;SDS011;52267;51.984;20.956;2023-06-04T04:41:20;10.30;;;5.80;;
65597;SDS011;52267;51.984;20.956;2023-06-04T04:43:49;8.70;;;4.30;;
65597;SDS011;52267;51.984;20.956;2023-06-04T04:46:16;8.30;;;4.60;;
65597;SDS011;52267;51.984;20.956;2023-06-04T04:48:43;5.80;;;3.60;;
65597;SDS011;52267;51.984;20.956;2023-06-04T04:51:10;7.90;;;4.00;;
65597;SDS011;52267;51.984;20.956;2023-06-04T04:53:37;8.30;;;3.70;;
65597;SDS011;52267;51.984;20.956;2023-06-04T04:56:04;7.30;;;3.70;;
65597;SDS011;52267;51.984;20.956;2023-06-04T04:58:31;8.00;;;4.10;;
65597;SDS011;52267;51.984;20.956;2023-06-04T05:00:58;6.00;;;3.00;;
65597;SDS011;52267;51.984;20.956;2023-06-04T05:03:26;6.70;;;3.00;;
65597;SDS011;52267;51.984;20.956;2023-06-04T05:05:53;6.20;;;2.70;;
65597;SDS011;52267;51.984;20.956;2023-06-04T05:08:20;7.80;;;2.40;;
65597;SDS011;52267;51.984;20.956;2023-06-04T05:10:47;6.10;;;3.10;;
65597;SDS011;52267;51.984;20.956;2023-06-04T05:13:14;4.80;;;2.60;;
65597;SDS011;52267;51.984;20.956;2023-06-04T05:15:42;6.10;;;2.70;;
65597;SDS011;52267;51.984;20.956;2023-06-04T05:18:09;4.40;;;2.50;;
65597;SDS011;52267;51.984;20.956;2023-06-04T05:20:36;5.70;;;2.80;;
65597;SDS011;52267;51.984;20.956;2023-06-04T05:23:04;7.70;;;2.50;;
65597;SDS011;52267;51.984;20.956;2023-06-04T05:25:31;5.50;;;2.70;;
65597;SDS011;52267;51.984;20.956;2023-06-04T05:27:59;5.60;;;2.90;;
65597;SDS011;52267;51.984;20.956;2023-06-04T05:30:26;6.20;;;2.70;;
65597;SDS011;52267;51.984;20.956;2023-06-04T05:32:53;5.70;;;2.70;;
65597;SDS011;52267;51.984;20.956;2023-06-04T05:35:20;4.30;;;2.40;;
65597;SDS011;52267;51.984;20.956;2023-06-04T05:37:47;5.60;;;2.50;;
65597;SDS011;52267;51.984;20.956;2023-06-04T05:40:20;6.30;;;2.20;;
65597;SDS011;52267;51.984;20.956;2023-06-04T05:42:50;4.70;;;2.60;;
65597;SDS011;52267;51.984;20.956;2023-06-04T05:45:17;5.90;;;2.90;;
65597;SDS011;52267;51.984;20.956;2023-06-04T05:47:44;4.80;;;2.50;;
65597;SDS011;52267;51.984;20.956;2023-06-04T05:50:11;5.40;;;2.90;;
65597;SDS011;52267;51.984;20.956;2023-06-04T05:52:39;4.40;;;2.80;;
65597;SDS011;52267;51.984;20.956;2023-06-04T05:55:06;4.30;;;2.20;;
65597;SDS011;52267;51.984;20.956;2023-06-04T05:57:34;5.20;;;2.80;;
65597;SDS011;52267;51.984;20.956;2023-06-04T06:00:02;4.30;;;2.30;;
65597;SDS011;52267;51.984;20.956;2023-06-04T06:02:36;12.30;;;2.30;;
65597;SDS011;52267;51.984;20.956;2023-06-04T06:05:05;5.00;;;2.40;;
65597;SDS011;52267;51.984;20.956;2023-06-04T06:07:35;5.50;;;2.40;;
65597;SDS011;52267;51.984;20.956;2023-06-04T06:10:03;4.00;;;2.10;;
65597;SDS011;52267;51.984;20.956;2023-06-04T06:12:30;4.00;;;2.10;;
65597;SDS011;52267;51.984;20.956;2023-06-04T06:14:57;5.00;;;2.20;;
65597;SDS011;52267;51.984;20.956;2023-06-04T06:17:25;5.70;;;2.10;;
65597;SDS011;52267;51.984;20.956;2023-06-04T06:19:52;4.20;;;2.10;;
65597;SDS011;52267;51.984;20.956;2023-06-04T06:22:19;4.20;;;1.60;;
65597;SDS011;52267;51.984;20.956;2023-06-04T06:24:47;3.60;;;1.90;;
65597;SDS011;52267;51.984;20.956;2023-06-04T06:27:16;4.60;;;2.20;;
65597;SDS011;52267;51.984;20.956;2023-06-04T06:29:44;3.00;;;1.90;;
65597;SDS011;52267;51.984;20.956;2023-06-04T06:32:11;3.70;;;1.90;;
65597;SDS011;52267;51.984;20.956;2023-06-04T06:34:38;4.40;;;1.90;;
65597;SDS011;52267;51.984;20.956;2023-06-04T06:37:06;4.00;;;2.00;;
65597;SDS011;52267;51.984;20.956;2023-06-04T06:39:33;2.80;;;1.40;;
65597;SDS011;52267;51.984;20.956;2023-06-04T06:42:00;4.30;;;1.60;;
65597;SDS011;52267;51.984;20.956;2023-06-04T06:44:27;3.30;;;1.70;;
65597;SDS011;52267;51.984;20.956;2023-06-04T06:46:54;4.30;;;1.70;;
65597;SDS011;52267;51.984;20.956;2023-06-04T06:49:21;3.50;;;1.50;;
65597;SDS011;52267;51.984;20.956;2023-06-04T06:51:48;3.30;;;1.60;;
65597;SDS011;52267;51.984;20.956;2023-06-04T06:54:15;3.00;;;1.60;;
65597;SDS011;52267;51.984;20.956;2023-06-04T06:56:43;2.80;;;1.30;;
65597;SDS011;52267;51.984;20.956;2023-06-04T06:59:10;3.50;;;1.50;;
65597;SDS011;52267;51.984;20.956;2023-06-04T07:01:37;3.20;;;1.40;;
65597;SDS011;52267;51.984;20.956;2023-06-04T07:04:04;3.40;;;1.40;;
65597;SDS011;52267;51.984;20.956;2023-06-04T07:06:34;2.90;;;1.30;;
65597;SDS011;52267;51.984;20.956;2023-06-04T07:09:02;2.60;;;1.20;;
65597;SDS011;52267;51.984;20.956;2023-06-04T07:11:32;3.50;;;1.30;;
65597;SDS011;52267;51.984;20.956;2023-06-04T07:13:59;3.40;;;1.40;;
65597;SDS011;52267;51.984;20.956;2023-06-04T07:16:31;3.60;;;1.30;;
65597;SDS011;52267;51.984;20.956;2023-06-04T07:19:00;2.60;;;1.00;;
65597;SDS011;52267;51.984;20.956;2023-06-04T07:21:28;4.80;;;1.20;;
65597;SDS011;52267;51.984;20.956;2023-06-04T07:23:55;3.40;;;1.00;;
65597;SDS011;52267;51.984;20.956;2023-06-04T07:26:22;2.30;;;1.00;;
65597;SDS011;52267;51.984;20.956;2023-06-04T07:28:49;1.80;;;1.00;;
65597;SDS011;52267;51.984;20.956;2023-06-04T07:31:17;3.50;;;1.00;;
65597;SDS011;52267;51.984;20.956;2023-06-04T07:33:44;3.20;;;0.80;;
65597;SDS011;52267;51.984;20.956;2023-06-04T07:36:15;1.80;;;0.80;;
65597;SDS011;52267;51.984;20.956;2023-06-04T07:38:43;1.50;;;0.80;;
65597;SDS011;52267;51.984;20.956;2023-06-04T07:41:10;2.60;;;1.00;;
65597;SDS011;52267;51.984;20.956;2023-06-04T07:43:37;2.50;;;0.80;;
65597;SDS011;52267;51.984;20.956;2023-06-04T07:46:07;2.00;;;1.00;;
65597;SDS011;52267;51.984;20.956;2023-06-04T07:48:35;2.00;;;1.00;;
65597;SDS011;52267;51.984;20.956;2023-06-04T07:51:03;3.70;;;0.90;;
65597;SDS011;52267;51.984;20.956;2023-06-04T07:53:33;2.60;;;1.10;;
65597;SDS011;52267;51.984;20.956;2023-06-04T07:56:00;1.70;;;0.80;;
65597;SDS011;52267;51.984;20.956;2023-06-04T07:58:27;3.50;;;0.90;;
65597;SDS011;52267;51.984;20.956;2023-06-04T08:00:54;3.10;;;0.90;;
65597;SDS011;52267;51.984;20.956;2023-06-04T08:03:22;3.60;;;1.00;;
65597;SDS011;52267;51.984;20.956;2023-06-04T08:05:49;4.00;;;0.90;;
65597;SDS011;52267;51.984;20.956;2023-06-04T08:08:16;2.70;;;1.00;;
65597;SDS011;52267;51.984;20.956;2023-06-04T08:10:44;2.70;;;0.90;;
65597;SDS011;52267;51.984;20.956;2023-06-04T08:13:11;2.30;;;0.70;;
65597;SDS011;52267;51.984;20.956;2023-06-04T08:15:38;1.80;;;0.80;;
65597;SDS011;52267;51.984;20.956;2023-06-04T08:18:05;2.60;;;0.90;;
65597;SDS011;52267;51.984;20.956;2023-06-04T08:20:32;2.40;;;0.90;;
65597;SDS011;52267;51.984;20.956;2023-06-04T08:22:59;2.00;;;0.80;;
65597;SDS011;52267;51.984;20.956;2023-06-04T08:25:26;1.80;;;0.90;;
65597;SDS011;52267;51.984;20.956;2023-06-04T08:27:53;2.40;;;0.90;;
65597;SDS011;52267;51.984;20.956;2023-06-04T08:30:20;2.00;;;0.80;;
65597;SDS011;52267;51.984;20.956;2023-06-04T08:32:47;3.90;;;1.10;;
65597;SDS011;52267;51.984;20.956;2023-06-04T08:35:15;3.10;;;0.80;;
65597;SDS011;52267;51.984;20.956;2023-06-04T08:37:42;3.30;;;1.00;;
65597;SDS011;52267;51.984;20.956;2023-06-04T08:40:09;2.40;;;0.80;;
65597;SDS011;52267;51.984;20.956;2023-06-04T08:42:42;2.40;;;0.90;;
65597;SDS011;52267;51.984;20.956;2023-06-04T08:45:12;3.00;;;0.80;;
65597;SDS011;52267;51.984;20.956;2023-06-04T08:47:44;1.50;;;0.70;;
65597;SDS011;52267;51.984;20.956;2023-06-04T08:50:21;3.20;;;0.90;;
65597;SDS011;52267;51.984;20.956;2023-06-04T08:52:52;2.50;;;0.80;;
65597;SDS011;52267;51.984;20.956;2023-06-04T08:55:23;3.20;;;0.80;;
65597;SDS011;52267;51.984;20.956;2023-06-04T08:57:51;2.30;;;0.80;;
65597;SDS011;52267;51.984;20.956;2023-06-04T09:00:19;3.30;;;0.80;;
65597;SDS011;52267;51.984;20.956;2023-06-04T09:02:49;2.30;;;0.80;;
65597;SDS011;52267;51.984;20.956;2023-06-04T09:07:53;2.40;;;0.90;;
65597;SDS011;52267;51.984;20.956;2023-06-04T09:10:22;2.10;;;0.90;;
65597;SDS011;52267;51.984;20.956;2023-06-04T09:12:53;1.90;;;0.70;;
65597;SDS011;52267;51.984;20.956;2023-06-04T09:15:21;1.40;;;0.70;;
65597;SDS011;52267;51.984;20.956;2023-06-04T09:17:48;1.80;;;0.80;;
65597;SDS011;52267;51.984;20.956;2023-06-04T09:20:22;2.00;;;0.80;;
65597;SDS011;52267;51.984;20.956;2023-06-04T09:22:49;2.80;;;0.90;;
65597;SDS011;52267;51.984;20.956;2023-06-04T09:25:24;3.40;;;0.90;;
65597;SDS011;52267;51.984;20.956;2023-06-04T09:27:53;2.70;;;0.90;;
65597;SDS011;52267;51.984;20.956;2023-06-04T09:30:24;1.50;;;0.60;;
65597;SDS011;52267;51.984;20.956;2023-06-04T09:32:52;1.40;;;0.70;;
65597;SDS011;52267;51.984;20.956;2023-06-04T09:35:20;3.10;;;0.80;;
65597;SDS011;52267;51.984;20.956;2023-06-04T09:37:55;2.00;;;0.80;;
65597;SDS011;52267;51.984;20.956;2023-06-04T09:40:23;2.80;;;0.80;;
65597;SDS011;52267;51.984;20.956;2023-06-04T09:42:51;2.80;;;1.20;;
65597;SDS011;52267;51.984;20.956;2023-06-04T09:47:59;3.50;;;0.90;;
65597;SDS011;52267;51.984;20.956;2023-06-04T09:50:29;2.80;;;0.90;;
65597;SDS011;52267;51.984;20.956;2023-06-04T09:52:58;3.40;;;1.10;;
65597;SDS011;52267;51.984;20.956;2023-06-04T09:55:26;3.20;;;0.90;;
65597;SDS011;52267;51.984;20.956;2023-06-04T09:57:53;3.10;;;0.80;;
65597;SDS011;52267;51.984;20.956;2023-06-04T10:00:22;2.20;;;0.80;;
65597;SDS011;52267;51.984;20.956;2023-06-04T10:02:58;2.30;;;0.70;;
65597;SDS011;52267;51.984;20.956;2023-06-04T10:05:34;2.10;;;0.80;;
65597;SDS011;52267;51.984;20.956;2023-06-04T10:08:03;2.20;;;0.80;;
65597;SDS011;52267;51.984;20.956;2023-06-04T10:10:35;3.50;;;0.90;;
65597;SDS011;52267;51.984;20.956;2023-06-04T10:13:07;2.60;;;0.80;;
65597;SDS011;52267;51.984;20.956;2023-06-04T10:15:42;1.60;;;0.70;;
65597;SDS011;52267;51.984;20.956;2023-06-04T10:18:10;2.20;;;0.90;;
65597;SDS011;52267;51.984;20.956;2023-06-04T10:20:39;3.60;;;1.00;;
65597;SDS011;52267;51.984;20.956;2023-06-04T10:23:07;2.80;;;0.80;;
65597;SDS011;52267;51.984;20.956;2023-06-04T10:25:38;1.80;;;1.00;;
65597;SDS011;52267;51.984;20.956;2023-06-04T10:28:05;3.40;;;1.00;;
65597;SDS011;52267;51.984;20.956;2023-06-04T10:30:32;2.40;;;0.90;;
65597;SDS011;52267;51.984;20.956;2023-06-04T10:32:59;3.30;;;0.80;;
65597;SDS011;52267;51.984;20.956;2023-06-04T10:35:34;3.20;;;0.70;;
65597;SDS011;52267;51.984;20.956;2023-06-04T10:38:09;3.30;;;1.00;;
65597;SDS011;52267;51.984;20.956;2023-06-04T10:40:37;2.80;;;0.80;;
65597;SDS011;52267;51.984;20.956;2023-06-04T10:43:15;1.80;;;0.80;;
65597;SDS011;52267;51.984;20.956;2023-06-04T10:45:45;3.00;;;0.80;;
65597;SDS011;52267;51.984;20.956;2023-06-04T10:48:12;3.00;;;0.70;;
65597;SDS011;52267;51.984;20.956;2023-06-04T10:50:51;1.80;;;0.80;;
65597;SDS011;52267;51.984;20.956;2023-06-04T10:53:19;3.20;;;1.30;;
65597;SDS011;52267;51.984;20.956;2023-06-04T10:55:47;5.70;;;1.20;;
65597;SDS011;52267;51.984;20.956;2023-06-04T10:58:15;2.00;;;0.80;;
65597;SDS011;52267;51.984;20.956;2023-06-04T11:00:44;2.10;;;0.80;;
65597;SDS011;52267;51.984;20.956;2023-06-04T11:03:13;1.60;;;0.80;;
65597;SDS011;52267;51.984;20.956;2023-06-04T11:05:46;2.50;;;0.80;;
65597;SDS011;52267;51.984;20.956;2023-06-04T11:08:14;1.90;;;0.80;;
65597;SDS011;52267;51.984;20.956;2023-06-04T11:10:44;1.80;;;0.60;;
65597;SDS011;52267;51.984;20.956;2023-06-04T11:13:12;2.00;;;0.80;;
65597;SDS011;52267;51.984;20.956;2023-06-04T11:15:44;2.20;;;0.60;;
65597;SDS011;52267;51.984;20.956;2023-06-04T11:18:14;1.50;;;0.60;;
65597;SDS011;52267;51.984;20.956;2023-06-04T11:20:45;2.60;;;1.10;;
65597;SDS011;52267;51.984;20.956;2023-06-04T11:23:14;2.70;;;1.00;;
65597;SDS011;52267;51.984;20.956;2023-06-04T11:25:43;2.20;;;0.80;;
65597;SDS011;52267;51.984;20.956;2023-06-04T11:28:17;3.70;;;0.90;;
65597;SDS011;52267;51.984;20.956;2023-06-04T11:30:57;1.50;;;0.90;;
65597;SDS011;52267;51.984;20.956;2023-06-04T11:33:24;2.40;;;0.90;;
65597;SDS011;52267;51.984;20.956;2023-06-04T11:35:51;2.20;;;0.80;;
65597;SDS011;52267;51.984;20.956;2023-06-04T11:38:19;2.50;;;0.80;;
65597;SDS011;52267;51.984;20.956;2023-06-04T11:41:04;4.30;;;1.10;;
65597;SDS011;52267;51.984;20.956;2023-06-04T11:43:32;1.30;;;0.80;;
65597;SDS011;52267;51.984;20.956;2023-06-04T11:46:05;2.20;;;0.90;;
65597;SDS011;52267;51.984;20.956;2023-06-04T11:48:33;2.60;;;0.80;;
65597;SDS011;52267;51.984;20.956;2023-06-04T11:51:05;1.60;;;0.80;;
65597;SDS011;52267;51.984;20.956;2023-06-04T11:53:40;2.50;;;0.90;;
65597;SDS011;52267;51.984;20.956;2023-06-04T11:56:08;3.00;;;1.00;;
65597;SDS011;52267;51.984;20.956;2023-06-04T11:58:35;2.50;;;0.90;;
65597;SDS011;52267;51.984;20.956;2023-06-04T12:01:03;3.70;;;1.00;;
65597;SDS011;52267;51.984;20.956;2023-06-04T12:03:35;2.60;;;0.80;;
65597;SDS011;52267;51.984;20.956;2023-06-04T12:06:17;4.10;;;0.90;;
65597;SDS011;52267;51.984;20.956;2023-06-04T12:08:47;1.90;;;1.00;;
65597;SDS011;52267;51.984;20.956;2023-06-04T12:13:53;2.80;;;1.10;;
65597;SDS011;52267;51.984;20.956;2023-06-04T12:16:22;2.80;;;0.70;;
65597;SDS011;52267;51.984;20.956;2023-06-04T12:18:49;1.80;;;0.80;;
65597;SDS011;52267;51.984;20.956;2023-06-04T12:21:24;2.40;;;0.70;;
65597;SDS011;52267;51.984;20.956;2023-06-04T12:24:11;2.50;;;0.90;;
65597;SDS011;52267;51.984;20.956;2023-06-04T12:26:42;1.70;;;0.80;;
65597;SDS011;52267;51.984;20.956;2023-06-04T12:29:11;3.10;;;1.30;;
65597;SDS011;52267;51.984;20.956;2023-06-04T12:31:43;1.70;;;0.80;;
65597;SDS011;52267;51.984;20.956;2023-06-04T12:34:14;2.50;;;0.90;;
65597;SDS011;52267;51.984;20.956;2023-06-04T12:36:42;2.00;;;0.80;;
65597;SDS011;52267;51.984;20.956;2023-06-04T12:39:09;1.50;;;0.70;;
65597;SDS011;52267;51.984;20.956;2023-06-04T12:41:36;2.10;;;0.80;;
65597;SDS011;52267;51.984;20.956;2023-06-04T12:44:04;1.00;;;0.70;;
65597;SDS011;52267;51.984;20.956;2023-06-04T12:46:31;2.20;;;0.90;;
65597;SDS011;52267;51.984;20.956;2023-06-04T12:48:58;2.40;;;0.80;;
65597;SDS011;52267;51.984;20.956;2023-06-04T12:51:25;2.10;;;0.90;;
65597;SDS011;52267;51.984;20.956;2023-06-04T12:53:52;2.10;;;0.90;;
65597;SDS011;52267;51.984;20.956;2023-06-04T12:56:19;3.60;;;1.00;;
65597;SDS011;52267;51.984;20.956;2023-06-04T12:58:46;2.30;;;0.90;;
65597;SDS011;52267;51.984;20.956;2023-06-04T13:01:14;1.70;;;0.70;;
65597;SDS011;52267;51.984;20.956;2023-06-04T13:03:42;1.60;;;0.70;;
65597;SDS011;52267;51.984;20.956;2023-06-04T13:06:09;1.60;;;0.80;;
65597;SDS011;52267;51.984;20.956;2023-06-04T13:08:36;2.50;;;1.20;;
65597;SDS011;52267;51.984;20.956;2023-06-04T13:11:04;1.40;;;0.60;;
65597;SDS011;52267;51.984;20.956;2023-06-04T13:13:32;3.30;;;0.70;;
65597;SDS011;52267;51.984;20.956;2023-06-04T13:15:59;2.50;;;0.90;;
65597;SDS011;52267;51.984;20.956;2023-06-04T13:18:26;3.20;;;0.90;;
65597;SDS011;52267;51.984;20.956;2023-06-04T13:20:53;2.20;;;0.80;;
65597;SDS011;52267;51.984;20.956;2023-06-04T13:23:21;1.90;;;0.80;;
65597;SDS011;52267;51.984;20.956;2023-06-04T13:25:49;2.20;;;0.80;;
65597;SDS011;52267;51.984;20.956;2023-06-04T13:28:16;1.80;;;0.70;;
65597;SDS011;52267;51.984;20.956;2023-06-04T13:30:44;1.50;;;0.70;;
65597;SDS011;52267;51.984;20.956;2023-06-04T13:33:12;1.80;;;0.70;;
65597;SDS011;52267;51.984;20.956;2023-06-04T13:35:39;3.60;;;0.80;;
65597;SDS011;52267;51.984;20.956;2023-06-04T13:38:06;1.10;;;0.60;;
65597;SDS011;52267;51.984;20.956;2023-06-04T13:40:34;2.80;;;1.10;;
65597;SDS011;52267;51.984;20.956;2023-06-04T13:43:02;2.20;;;0.90;;
65597;SDS011;52267;51.984;20.956;2023-06-04T13:45:29;2.20;;;0.70;;
65597;SDS011;52267;51.984;20.956;2023-06-04T13:47:57;2.90;;;1.00;;
65597;SDS011;52267;51.984;20.956;2023-06-04T13:50:28;2.00;;;1.10;;
65597;SDS011;52267;51.984;20.956;2023-06-04T13:52:56;2.10;;;0.80;;
65597;SDS011;52267;51.984;20.956;2023-06-04T13:55:23;3.20;;;1.00;;
65597;SDS011;52267;51.984;20.956;2023-06-04T13:57:50;2.50;;;0.80;;
65597;SDS011;52267;51.984;20.956;2023-06-04T14:00:17;1.70;;;0.80;;
65597;SDS011;52267;51.984;20.956;2023-06-04T14:02:44;1.70;;;1.00;;
65597;SDS011;52267;51.984;20.956;2023-06-04T14:05:11;1.90;;;1.00;;
65597;SDS011;52267;51.984;20.956;2023-06-04T14:07:41;1.90;;;0.70;;
65597;SDS011;52267;51.984;20.956;2023-06-04T14:10:10;1.80;;;0.90;;
65597;SDS011;52267;51.984;20.956;2023-06-04T14:12:39;2.20;;;0.80;;
65597;SDS011;52267;51.984;20.956;2023-06-04T14:15:10;2.70;;;1.10;;
65597;SDS011;52267;51.984;20.956;2023-06-04T14:17:38;2.40;;;0.90;;
65597;SDS011;52267;51.984;20.956;2023-06-04T14:20:06;2.80;;;1.00;;
65597;SDS011;52267;51.984;20.956;2023-06-04T14:22:37;2.80;;;1.10;;
65597;SDS011;52267;51.984;20.956;2023-06-04T14:25:08;4.00;;;2.20;;
65597;SDS011;52267;51.984;20.956;2023-06-04T14:27:35;2.30;;;0.90;;
65597;SDS011;52267;51.984;20.956;2023-06-04T14:30:04;3.20;;;0.80;;
65597;SDS011;52267;51.984;20.956;2023-06-04T14:32:32;3.50;;;1.10;;
65597;SDS011;52267;51.984;20.956;2023-06-04T14:35:00;4.20;;;1.40;;
65597;SDS011;52267;51.984;20.956;2023-06-04T14:37:27;1.70;;;1.00;;
65597;SDS011;52267;51.984;20.956;2023-06-04T14:39:54;1.80;;;0.70;;
65597;SDS011;52267;51.984;20.956;2023-06-04T14:42:21;3.10;;;0.80;;
65597;SDS011;52267;51.984;20.956;2023-06-04T14:44:48;2.70;;;0.70;;
65597;SDS011;52267;51.984;20.956;2023-06-04T14:47:15;2.10;;;0.70;;
65597;SDS011;52267;51.984;20.956;2023-06-04T14:49:42;1.70;;;0.70;;